createdAt,value
2022-10-25T00:01:46.029Z,25.50
2022-10-25T00:04:16.453Z,21.75
2022-10-25T00:06:45.967Z,26.75
2022-10-25T00:09:15.498Z,23.75
2022-10-25T00:11:45.005Z,25.50
2022-10-25T00:14:19.958Z,23.25
2022-10-25T00:16:49.975Z,23.50
2022-10-25T00:19:19.479Z,26.25
2022-10-25T00:21:48.938Z,28.00
2022-10-25T00:24:18.464Z,23.00
2022-10-25T00:26:47.945Z,22.75
2022-10-25T00:29:18.343Z,26.75
2022-10-25T00:31:47.908Z,27.50
2022-10-25T00:34:17.470Z,29.50
2022-10-25T00:36:46.949Z,28.75
2022-10-25T00:39:16.461Z,30.50
2022-10-25T00:41:46.106Z,27.50
2022-10-25T00:44:33.626Z,30.25
2022-10-25T00:47:06.641Z,31.00
2022-10-25T00:49:36.555Z,28.50
2022-10-25T00:52:07.154Z,32.50
2022-10-25T00:54:44.369Z,29.75
2022-10-25T00:57:17.970Z,30.50
2022-10-25T00:59:48.390Z,28.75
2022-10-25T01:02:18.515Z,30.75
2022-10-25T01:04:48.154Z,30.75
2022-10-25T01:07:17.627Z,31.25
2022-10-25T01:09:47.490Z,31.25
2022-10-25T01:12:16.951Z,29.50
2022-10-25T01:14:47.243Z,32.00
2022-10-25T01:17:35.764Z,32.00
2022-10-25T01:20:24.565Z,31.50
2022-10-25T01:23:04.147Z,32.75
2022-10-25T01:25:46.703Z,31.75
2022-10-25T01:28:49.462Z,31.75
2022-10-25T01:31:19.093Z,31.75
2022-10-25T01:34:00.785Z,32.25
2022-10-25T01:36:42.432Z,32.50
2022-10-25T01:39:35.478Z,31.75
2022-10-25T01:42:18.370Z,38.25
2022-10-25T01:44:51.361Z,35.00
2022-10-25T01:47:23.711Z,34.50
2022-10-25T01:50:05.630Z,33.50
2022-10-25T01:52:35.385Z,40.50
2022-10-25T01:55:05.594Z,38.50
2022-10-25T01:57:53.332Z,37.50
2022-10-25T02:00:24.461Z,37.25
2022-10-25T02:02:54.502Z,35.75
2022-10-25T02:05:45.339Z,36.50
2022-10-25T02:08:15.265Z,33.00
2022-10-25T02:10:50.688Z,34.50
2022-10-25T02:13:37.381Z,32.50
2022-10-25T02:16:09.841Z,35.00
2022-10-25T02:18:43.336Z,34.50
2022-10-25T02:21:14.546Z,34.50
2022-10-25T02:23:45.427Z,38.75
2022-10-25T02:26:16.719Z,39.50
2022-10-25T02:28:48.366Z,38.75
2022-10-25T02:31:19.829Z,35.00
2022-10-25T02:33:49.964Z,36.00
2022-10-25T02:36:19.347Z,37.25
2022-10-25T02:38:49.955Z,34.50
2022-10-25T02:41:19.996Z,35.75
2022-10-25T02:43:49.732Z,34.75
2022-10-25T02:46:20.858Z,33.25
2022-10-25T02:48:50.705Z,32.00
2022-10-25T02:51:20.464Z,35.75
2022-10-25T02:53:49.895Z,31.00
2022-10-25T02:56:23.628Z,33.50
2022-10-25T02:58:53.787Z,33.00
2022-10-25T03:01:23.457Z,31.25
2022-10-25T03:03:53.122Z,35.25
2022-10-25T03:06:22.632Z,32.00
2022-10-25T03:08:52.026Z,33.75
2022-10-25T03:11:21.745Z,33.50
2022-10-25T03:13:51.221Z,31.75
2022-10-25T03:16:20.641Z,33.25
2022-10-25T03:18:50.064Z,32.00
2022-10-25T03:21:19.511Z,32.25
2022-10-25T03:23:48.947Z,33.00
2022-10-25T03:26:18.362Z,33.50
2022-10-25T03:28:47.807Z,28.50
2022-10-25T03:31:18.433Z,32.00
2022-10-25T03:33:48.179Z,35.00
2022-10-25T03:36:17.769Z,34.75
2022-10-25T03:38:47.299Z,32.25
2022-10-25T03:41:17.708Z,32.00
2022-10-25T03:43:47.178Z,38.00
2022-10-25T03:46:17.071Z,42.50
2022-10-25T03:48:46.477Z,45.50
2022-10-25T03:51:15.917Z,44.75
2022-10-25T03:53:45.418Z,46.00
2022-10-25T03:56:14.798Z,43.25
2022-10-25T03:58:44.354Z,42.50
2022-10-25T04:01:13.963Z,43.25
2022-10-25T04:03:46.024Z,44.25
2022-10-25T04:06:15.909Z,40.75
2022-10-25T04:08:45.281Z,42.50
2022-10-25T04:11:14.736Z,41.00
2022-10-25T04:13:44.267Z,41.50
2022-10-25T04:16:16.978Z,38.50
2022-10-25T04:18:49.215Z,40.00
2022-10-25T04:21:18.642Z,41.50
2022-10-25T04:23:48.148Z,41.50
2022-10-25T04:26:20.122Z,41.00
2022-10-25T04:28:53.678Z,38.75
2022-10-25T04:31:24.586Z,38.50
2022-10-25T04:33:55.093Z,43.00
2022-10-25T04:36:24.784Z,42.50
2022-10-25T04:38:54.971Z,43.00
2022-10-25T04:41:24.884Z,38.50
2022-10-25T04:43:54.346Z,40.00
2022-10-25T04:46:24.178Z,40.50
2022-10-25T04:48:53.789Z,43.25
2022-10-25T04:51:23.227Z,39.75
2022-10-25T04:53:55.085Z,40.25
2022-10-25T04:56:25.157Z,40.75
2022-10-25T04:58:54.676Z,38.75
2022-10-25T05:01:24.347Z,42.75
2022-10-25T05:03:53.932Z,41.50
2022-10-25T05:06:28.189Z,39.75
2022-10-25T05:08:57.831Z,41.00
2022-10-25T05:11:27.655Z,39.25
2022-10-25T05:13:57.189Z,45.00
2022-10-25T05:16:27.377Z,42.00
2022-10-25T05:18:57.165Z,42.25
2022-10-25T05:21:31.238Z,42.75
2022-10-25T05:24:02.412Z,39.25
2022-10-25T05:26:32.988Z,41.25
2022-10-25T05:29:04.517Z,41.50
2022-10-25T05:31:36.268Z,41.25
2022-10-25T05:34:06.792Z,41.50
2022-10-25T05:36:36.402Z,39.50
2022-10-25T05:39:05.882Z,39.75
2022-10-25T05:41:37.176Z,39.25
2022-10-25T05:44:07.696Z,39.25
2022-10-25T05:46:37.093Z,41.50
2022-10-25T05:49:06.615Z,40.25
2022-10-25T05:51:36.959Z,42.00
2022-10-25T05:54:09.092Z,39.00
2022-10-25T05:56:39.325Z,37.25
2022-10-25T05:59:13.706Z,39.50
2022-10-25T06:01:47.449Z,38.50
2022-10-25T06:04:18.351Z,38.75
2022-10-25T06:06:48.821Z,35.50
2022-10-25T06:09:19.874Z,37.75
2022-10-25T06:11:49.727Z,39.75
2022-10-25T06:14:19.201Z,38.00
2022-10-25T06:16:48.727Z,38.75
2022-10-25T06:19:18.380Z,36.25
2022-10-25T06:21:48.315Z,36.25
2022-10-25T06:24:17.895Z,38.00
2022-10-25T06:26:47.446Z,36.00
2022-10-25T06:29:16.923Z,37.75
2022-10-25T06:31:46.460Z,37.00
2022-10-25T06:34:15.958Z,39.00
2022-10-25T06:36:45.748Z,35.50
2022-10-25T06:39:15.327Z,34.75
2022-10-25T06:41:44.836Z,38.50
2022-10-25T06:44:14.297Z,37.25
2022-10-25T06:47:15.285Z,38.25
2022-10-25T06:49:33.849Z,33.50
2022-10-25T06:52:03.435Z,36.50
2022-10-25T06:54:32.959Z,37.00
2022-10-25T06:57:02.530Z,35.00
2022-10-25T06:59:32.387Z,36.00
2022-10-25T07:02:01.892Z,37.50
2022-10-25T07:04:33.908Z,37.00
2022-10-25T07:07:03.432Z,37.75
2022-10-25T07:09:32.967Z,36.25
2022-10-25T07:12:02.445Z,36.50
2022-10-25T07:14:32.126Z,45.50
2022-10-25T07:17:01.556Z,39.25
2022-10-25T07:19:31.061Z,40.75
2022-10-25T07:22:00.586Z,36.00
2022-10-25T07:24:30.079Z,36.75
2022-10-25T07:26:59.701Z,38.00
2022-10-25T07:29:29.297Z,38.50
2022-10-25T07:31:58.782Z,36.75
2022-10-25T07:34:28.399Z,34.25
2022-10-25T07:36:57.834Z,35.25
2022-10-25T07:39:28.600Z,37.75
2022-10-25T07:41:58.263Z,35.25
2022-10-25T07:44:27.750Z,34.50
2022-10-25T07:46:57.095Z,38.50
2022-10-25T07:49:26.643Z,34.25
2022-10-25T07:51:57.045Z,34.75
2022-10-25T07:54:26.449Z,37.25
2022-10-25T07:56:55.952Z,38.75
2022-10-25T07:59:25.468Z,34.50
2022-10-25T08:01:55.053Z,33.25
2022-10-25T08:04:24.602Z,33.00
2022-10-25T08:06:54.076Z,35.50
2022-10-25T08:09:37.392Z,32.00
2022-10-25T08:12:08.544Z,35.00
2022-10-25T08:14:40.905Z,35.75
2022-10-25T08:17:12.057Z,31.50
2022-10-25T08:19:41.538Z,38.75
2022-10-25T08:22:10.937Z,37.50
2022-10-25T08:24:41.844Z,34.25
2022-10-25T08:27:11.516Z,32.00
2022-10-25T08:29:41.141Z,30.50
2022-10-25T08:32:10.708Z,34.00
2022-10-25T08:34:40.245Z,32.25
2022-10-25T08:37:12.356Z,30.50
2022-10-25T08:39:41.838Z,32.25
2022-10-25T08:42:17.575Z,35.50
2022-10-25T08:44:58.027Z,30.00
2022-10-25T08:47:35.033Z,31.75
2022-10-25T08:50:11.901Z,32.75
2022-10-25T08:52:41.288Z,31.75
2022-10-25T08:55:22.511Z,31.75
2022-10-25T08:57:53.900Z,34.75
2022-10-25T09:00:25.334Z,34.75
2022-10-25T09:02:54.930Z,33.25
2022-10-25T09:05:24.438Z,29.50
2022-10-25T09:08:23.458Z,34.00
2022-10-25T09:11:11.627Z,32.00
2022-10-25T09:13:59.961Z,32.75
2022-10-25T09:16:36.854Z,34.25
2022-10-25T09:19:13.934Z,34.25
2022-10-25T09:21:54.877Z,36.00
2022-10-25T09:24:43.449Z,37.25
2022-10-25T09:27:29.526Z,34.75
2022-10-25T09:30:08.128Z,34.00
2022-10-25T09:32:37.760Z,35.25
2022-10-25T09:35:08.675Z,32.00
2022-10-25T09:37:43.463Z,46.25
2022-10-25T09:40:16.382Z,43.25
2022-10-25T09:42:52.690Z,42.75
2022-10-25T09:45:22.233Z,41.00
2022-10-25T09:48:00.945Z,37.00
2022-10-25T09:50:32.434Z,39.50
2022-10-25T09:53:04.731Z,39.50
2022-10-25T09:55:43.886Z,38.75
2022-10-25T09:58:19.047Z,38.00
2022-10-25T10:00:48.844Z,37.50
2022-10-25T10:03:18.500Z,40.25
2022-10-25T10:05:54.036Z,38.75
2022-10-25T10:08:23.719Z,39.25
2022-10-25T10:10:55.094Z,42.00
2022-10-25T10:13:40.786Z,38.75
2022-10-25T10:16:28.382Z,42.25
2022-10-25T10:19:19.719Z,37.75
2022-10-25T10:22:02.903Z,39.00
2022-10-25T10:24:46.219Z,38.00
2022-10-25T10:27:26.529Z,38.00
2022-10-25T10:30:18.647Z,39.25
2022-10-25T10:32:48.287Z,38.25
2022-10-25T10:35:47.412Z,39.75
2022-10-25T10:38:27.697Z,39.00
2022-10-25T10:41:12.998Z,41.25
2022-10-25T10:52:42.816Z,43.25
2022-10-25T10:55:19.544Z,43.25
2022-10-25T10:57:49.159Z,40.00
2022-10-25T11:00:25.475Z,42.75
2022-10-25T11:05:29.411Z,48.75
2022-10-25T11:08:00.494Z,62.25
2022-10-25T11:10:39.216Z,51.00
2022-10-25T11:13:08.670Z,48.25
2022-10-25T11:15:56.646Z,47.25
2022-10-25T11:18:38.605Z,48.75
2022-10-25T11:21:08.375Z,46.25
2022-10-25T11:23:58.103Z,47.25
2022-10-25T11:26:30.562Z,48.50
2022-10-25T11:29:09.026Z,47.25
2022-10-25T11:31:52.285Z,47.00
2022-10-25T11:34:39.776Z,44.75
2022-10-25T11:37:15.611Z,49.25
2022-10-25T11:40:04.861Z,50.50
2022-10-25T11:42:34.691Z,52.00
2022-10-25T11:45:04.102Z,51.00
2022-10-25T11:47:33.542Z,50.25
2022-10-25T11:50:06.093Z,50.50
2022-10-25T11:53:01.843Z,50.25
2022-10-25T11:55:37.370Z,51.50
2022-10-25T11:58:32.765Z,51.25
2022-10-25T12:01:20.219Z,48.25
2022-10-25T12:03:57.756Z,47.25
2022-10-25T12:06:42.625Z,47.50
2022-10-25T12:09:30.097Z,47.75
2022-10-25T12:12:05.214Z,47.75
2022-10-25T12:14:36.504Z,44.50
2022-10-25T12:17:08.842Z,48.50
2022-10-25T12:19:44.211Z,46.25
2022-10-25T12:22:25.755Z,45.25
2022-10-25T12:25:00.621Z,47.00
2022-10-25T12:27:32.477Z,47.75
2022-10-25T12:30:07.648Z,46.50
2022-10-25T12:32:51.655Z,45.25
2022-10-25T12:35:33.499Z,44.25
2022-10-25T12:38:23.413Z,47.25
2022-10-25T12:40:57.227Z,44.00
2022-10-25T12:43:44.304Z,45.50
2022-10-25T12:46:19.584Z,43.00
2022-10-25T12:49:01.637Z,45.75
2022-10-25T12:51:50.184Z,46.50
2022-10-25T12:54:55.528Z,47.00
2022-10-25T12:57:33.430Z,45.50
2022-10-25T13:00:22.533Z,44.25
2022-10-25T13:03:28.845Z,44.75
2022-10-25T13:06:14.856Z,46.50
2022-10-25T13:08:45.103Z,44.00
2022-10-25T13:11:14.953Z,46.50
2022-10-25T13:13:50.438Z,45.75
2022-10-25T13:16:28.820Z,46.50
2022-10-25T13:19:25.732Z,46.25
2022-10-25T13:22:13.557Z,44.50
2022-10-25T13:24:44.798Z,45.50
2022-10-25T13:27:15.397Z,42.25
2022-10-25T13:29:50.581Z,45.00
2022-10-25T13:32:22.239Z,41.75
2022-10-25T13:34:54.372Z,45.75
2022-10-25T13:37:33.316Z,44.75
2022-10-25T13:40:21.774Z,45.75
2022-10-25T13:42:59.835Z,47.25
2022-10-25T13:45:36.428Z,43.00
2022-10-25T13:48:15.703Z,45.50
2022-10-25T13:50:46.173Z,44.75
2022-10-25T13:53:19.030Z,42.75
2022-10-25T13:55:58.269Z,45.00
2022-10-25T13:58:32.296Z,41.75
2022-10-25T14:01:18.199Z,43.75
2022-10-25T14:03:50.175Z,45.00
2022-10-25T14:06:28.349Z,43.00
2022-10-25T14:09:01.114Z,43.00
2022-10-25T14:11:52.517Z,44.25
2022-10-25T14:14:35.285Z,45.00
2022-10-25T14:17:11.765Z,45.50
2022-10-25T14:19:44.657Z,42.25
2022-10-25T14:22:18.839Z,44.25
2022-10-25T14:24:51.673Z,44.00
2022-10-25T14:27:36.878Z,44.50
2022-10-25T14:30:27.375Z,41.00
2022-10-25T14:32:58.840Z,44.25
2022-10-25T14:35:47.238Z,45.00
2022-10-25T14:38:19.296Z,43.50
2022-10-25T14:41:12.284Z,45.75
2022-10-25T14:43:44.444Z,45.75
2022-10-25T14:46:18.423Z,44.25
2022-10-25T14:48:49.705Z,44.00
2022-10-25T14:51:26.776Z,46.75
2022-10-25T14:54:05.276Z,44.75
2022-10-25T14:56:35.512Z,41.25
2022-10-25T14:59:07.041Z,43.75
2022-10-25T15:01:37.760Z,45.00
2022-10-25T15:04:07.782Z,45.75
2022-10-25T15:06:37.661Z,41.50
2022-10-25T15:09:41.395Z,43.75
2022-10-25T15:12:16.876Z,42.25
2022-10-25T15:14:49.134Z,45.25
2022-10-25T15:17:25.451Z,43.25
2022-10-25T15:20:02.081Z,42.50
2022-10-25T15:22:35.892Z,46.00
2022-10-25T15:25:26.141Z,43.50
2022-10-25T15:27:56.473Z,43.75
2022-10-25T15:30:47.538Z,44.25
2022-10-25T15:33:20.390Z,41.00
2022-10-25T15:35:55.480Z,45.50
2022-10-25T15:38:41.974Z,41.75
2022-10-25T15:41:22.122Z,44.25
2022-10-25T15:43:52.138Z,43.50
2022-10-25T15:46:25.696Z,46.00
2022-10-25T15:48:55.589Z,43.25
2022-10-25T15:51:27.526Z,42.00
2022-10-25T15:54:00.861Z,44.00
2022-10-25T15:56:30.723Z,42.50
2022-10-25T15:59:01.713Z,44.50
2022-10-25T16:01:31.999Z,46.00
2022-10-25T16:04:01.916Z,44.00
2022-10-25T16:06:31.667Z,44.75
2022-10-25T16:09:01.496Z,43.75
2022-10-25T16:11:31.451Z,44.50
2022-10-25T16:14:01.544Z,45.50
2022-10-25T16:16:40.673Z,44.50
2022-10-25T16:19:21.034Z,42.00
2022-10-25T16:21:50.836Z,44.00
2022-10-25T16:24:21.636Z,42.00
2022-10-25T16:26:52.548Z,43.00
2022-10-25T16:29:23.926Z,44.50
2022-10-25T16:31:54.155Z,45.75
2022-10-25T16:34:23.979Z,43.25
2022-10-25T16:36:54.224Z,44.25
2022-10-25T16:39:23.696Z,46.25
2022-10-25T16:41:53.962Z,42.75
2022-10-25T16:44:23.381Z,43.25
2022-10-25T16:46:52.716Z,44.25
2022-10-25T16:49:22.236Z,43.50
2022-10-25T16:51:53.647Z,45.75
2022-10-25T16:54:24.211Z,44.50
2022-10-25T16:56:53.868Z,45.25
2022-10-25T16:59:23.331Z,43.75
2022-10-25T17:01:56.602Z,43.50
2022-10-25T17:04:26.221Z,46.50
2022-10-25T17:06:55.805Z,44.75
2022-10-25T17:09:25.290Z,43.75
2022-10-25T17:11:54.762Z,44.50
2022-10-25T17:14:24.157Z,46.25
2022-10-25T17:16:53.585Z,47.50
2022-10-25T17:19:23.183Z,47.75
2022-10-25T17:21:53.156Z,44.75
2022-10-25T17:24:22.844Z,44.75
2022-10-25T17:26:52.413Z,46.75
2022-10-25T17:29:21.924Z,46.25
2022-10-25T17:31:51.365Z,45.50
2022-10-25T17:34:20.818Z,45.75
2022-10-25T17:36:53.384Z,44.75
2022-10-25T17:39:22.923Z,43.75
2022-10-25T17:41:52.461Z,43.75
2022-10-25T17:44:21.957Z,43.75
2022-10-25T17:46:51.340Z,44.75
2022-10-25T17:49:20.848Z,45.25
2022-10-25T17:51:50.286Z,45.75
2022-10-25T17:54:20.527Z,47.00
2022-10-25T17:56:49.977Z,42.25
2022-10-25T17:59:19.367Z,48.25
2022-10-25T18:01:48.915Z,44.00
2022-10-25T18:04:18.553Z,44.00
2022-10-25T18:06:48.013Z,46.50
2022-10-25T18:09:17.471Z,45.25
2022-10-25T18:11:47.150Z,46.25
2022-10-25T18:14:16.695Z,43.25
2022-10-25T18:16:46.185Z,44.00
2022-10-25T18:19:16.324Z,45.00
2022-10-25T18:21:45.755Z,46.50
2022-10-25T18:24:15.258Z,47.00
2022-10-25T18:26:44.679Z,44.25
2022-10-25T18:29:14.617Z,47.00
2022-10-25T18:31:44.102Z,47.00
2022-10-25T18:34:13.492Z,44.50
2022-10-25T18:36:43.068Z,46.00
2022-10-25T18:39:12.542Z,44.75
2022-10-25T18:41:43.764Z,44.75
2022-10-25T18:44:15.231Z,44.75
2022-10-25T18:46:45.183Z,47.25
2022-10-25T18:49:15.795Z,47.50
2022-10-25T18:51:45.235Z,46.25
2022-10-25T18:54:14.901Z,47.00
2022-10-25T18:56:44.343Z,47.25
2022-10-25T18:59:13.861Z,48.00
2022-10-25T19:01:43.481Z,45.75
2022-10-25T19:04:13.093Z,48.50
2022-10-25T19:06:42.494Z,48.00
2022-10-25T19:09:12.017Z,43.75
2022-10-25T19:11:41.507Z,46.00
2022-10-25T19:14:10.940Z,46.50
2022-10-25T19:16:42.621Z,47.00
2022-10-25T19:19:13.481Z,48.50
2022-10-25T19:21:44.365Z,48.25
2022-10-25T19:24:17.155Z,46.50
2022-10-25T19:26:47.146Z,46.25
2022-10-25T19:29:16.591Z,48.75
2022-10-25T19:31:46.023Z,46.25
2022-10-25T19:34:15.403Z,49.50
2022-10-25T19:36:45.067Z,47.75
2022-10-25T19:39:14.594Z,47.50
2022-10-25T19:41:44.386Z,46.50
2022-10-25T19:44:13.833Z,46.50
2022-10-25T19:46:43.395Z,49.75
2022-10-25T19:49:13.218Z,48.00
2022-10-25T19:51:42.820Z,48.00
2022-10-25T19:54:12.407Z,47.25
2022-10-25T19:56:42.164Z,49.75
2022-10-25T19:59:12.797Z,49.25
2022-10-25T20:01:48.874Z,48.00
2022-10-25T20:04:18.938Z,49.25
2022-10-25T20:06:48.449Z,47.00
2022-10-25T20:09:17.881Z,48.00
2022-10-25T20:11:47.299Z,48.25
2022-10-25T20:14:16.756Z,46.25
2022-10-25T20:16:46.268Z,48.25
2022-10-25T20:19:17.126Z,48.00
2022-10-25T20:21:46.545Z,48.75
2022-10-25T20:24:15.955Z,53.25
2022-10-25T20:26:46.126Z,48.00
2022-10-25T20:29:20.096Z,48.75
2022-10-25T20:31:51.428Z,47.25
2022-10-25T20:34:21.375Z,47.25
2022-10-25T20:36:50.848Z,47.50
2022-10-25T20:39:20.323Z,49.50
2022-10-25T20:41:49.810Z,47.75
2022-10-25T20:44:19.257Z,51.00
2022-10-25T20:46:48.790Z,49.50
2022-10-25T20:49:18.233Z,49.00
2022-10-25T20:51:47.806Z,48.00
2022-10-25T20:54:17.320Z,47.00
2022-10-25T20:56:46.747Z,47.25
2022-10-25T20:59:16.183Z,47.25
2022-10-25T21:01:45.808Z,51.00
2022-10-25T21:04:21.825Z,50.75
2022-10-25T21:06:59.843Z,46.25
2022-10-25T21:09:29.239Z,48.75
2022-10-25T21:11:58.638Z,50.25
2022-10-25T21:14:28.043Z,47.75
2022-10-25T21:16:57.508Z,50.00
2022-10-25T21:19:27.057Z,49.25
2022-10-25T21:21:56.508Z,50.75
2022-10-25T21:24:26.100Z,49.75
2022-10-25T21:26:55.945Z,51.50
2022-10-25T21:29:25.359Z,50.50
2022-10-25T21:31:54.735Z,52.50
2022-10-25T21:34:24.175Z,51.75
2022-10-25T21:36:53.575Z,51.50
2022-10-25T21:39:25.337Z,50.75
2022-10-25T21:41:54.779Z,50.50
2022-10-25T21:44:24.223Z,52.00
2022-10-25T21:46:53.757Z,51.25
2022-10-25T21:49:23.196Z,50.00
2022-10-25T21:51:52.620Z,50.00
2022-10-25T21:54:23.303Z,47.50
2022-10-25T21:56:54.067Z,46.75
2022-10-25T21:59:24.187Z,48.25
2022-10-25T22:01:53.726Z,47.25
2022-10-25T22:04:25.321Z,48.75
2022-10-25T22:06:54.819Z,49.00
2022-10-25T22:09:24.220Z,49.00
2022-10-25T22:11:56.459Z,50.00
2022-10-25T22:14:25.899Z,47.25
2022-10-25T22:16:55.302Z,48.00
2022-10-25T22:19:24.676Z,50.00
2022-10-25T22:21:54.131Z,48.75
2022-10-25T22:24:23.614Z,47.00
2022-10-25T22:26:52.998Z,44.75
2022-10-25T22:29:22.625Z,47.25
2022-10-25T22:31:52.206Z,47.75
2022-10-25T22:34:21.700Z,44.00
2022-10-25T22:36:51.208Z,47.25
2022-10-25T22:39:20.678Z,49.75
2022-10-25T22:41:54.306Z,44.75
2022-10-25T22:44:23.683Z,46.00
2022-10-25T22:46:52.967Z,47.00
2022-10-25T22:49:23.090Z,45.50
2022-10-25T22:51:52.424Z,44.00
2022-10-25T22:54:21.740Z,45.00
2022-10-25T22:56:51.004Z,46.50
2022-10-25T22:59:20.346Z,45.50
2022-10-25T23:01:49.958Z,43.75
2022-10-25T23:04:19.327Z,41.75
2022-10-25T23:06:48.630Z,47.50
2022-10-25T23:09:17.977Z,48.00
2022-10-25T23:11:47.674Z,47.25
2022-10-25T23:14:17.541Z,44.50
2022-10-25T23:16:47.762Z,55.75
2022-10-25T23:19:17.008Z,51.50
2022-10-25T23:21:46.323Z,57.50
2022-10-25T23:24:15.658Z,57.25
2022-10-25T23:26:45.116Z,59.25
2022-10-25T23:29:14.547Z,55.00
2022-10-25T23:31:43.962Z,54.50
2022-10-25T23:34:13.341Z,56.00
2022-10-25T23:36:42.803Z,52.00
2022-10-25T23:39:12.129Z,50.75
2022-10-25T23:41:41.485Z,52.75
2022-10-25T23:44:10.760Z,50.25
2022-10-25T23:46:40.259Z,52.00
2022-10-25T23:49:09.826Z,55.00
2022-10-25T23:51:39.294Z,58.25
2022-10-25T23:54:10.909Z,55.25
2022-10-25T23:56:40.939Z,55.50
2022-10-25T23:59:10.502Z,53.00
